AirNav   TITAN Aviation Fuels
 
 1631 users online  

65CL Al Divine Airport
Caruthers, California, USA

GOING TO CARUTHERS?


FAA INFORMATION EFFECTIVE 04 NOVEMBER 2021

Location

FAA Identifier: 65CL
Lat/Long: 36-30-51.8190N 119-45-50.4950W
36-30.863650N 119-45.841583W
36.5143942,-119.7640264
(estimated)
Elevation: 252 ft. / 77 m (estimated)
Variation: 15E (1985)
From city: 3 miles SE of CARUTHERS, CA
Time zone: UTC -7 (UTC -8 during Standard Time)
Zip code: 93725

Airport Operations

Airport use: Private use. Permission required prior to landing
Activation date: 10/1964
Control tower: no
ARTCC: OAKLAND CENTER
FSS: RANCHO MURIETA FLIGHT SERVICE STATION
Attendance: UNATNDD
Wind indicator: yes
Segmented circle: no

Airport Communications

WX AWOS-3 at FCH (13 nm N): 135.225 (559-488-1040)
WX ASOS at HJO (14 nm SE): 134.75 (559-585-8076)
WX AWOS-3 at NLC (14 nm SW): 121.575 (559-998-2336)
WX ASOS at FAT (16 nm N): PHONE 559-255-3413
WX AWOS-3PT at O32 (18 nm NE): 120.175 (559-637-9453)

Nearby radio navigation aids

VOR radial/distance  VOR name  Freq  Var
VISr287/16.2VISALIA VOR/DME109.4016E
FRAr176/36.3FRIANT VORTAC115.6017E

 
NDB name  Hdg/Dist  Freq  Var  ID
SALYER FARMS321/29.220516ECOR -.-. --- .-.

Airport Services

Runway Information

Runway 16/34

Dimensions: 2400 x 100 ft. / 732 x 30 m
Surface: asphalt
RUNWAY 16  RUNWAY 34
Traffic pattern: leftleft
Obstructions: 40 ft. plinenone
40 FT PLINE ALONG W SIDE OF RWY, NORTH END.

Airport Ownership and Management from official FAA records

Ownership: Privately-owned
Owner: DENNIS DIVINE
1695 E CONEJO AVE
FRESNO, CA 93725
Phone (559) 896-0731

Additional Remarks

FOR CD CTC FRESNO APCH AT 559-487-5405.
COULD BE USED FOR LAW ENFORCEMENT OR FOR EMERG.

Instrument Procedures

There are no published instrument procedures at 65CL.

Some nearby airports with instrument procedures:

KFCH - Fresno Chandler Executive Airport (13 nm N)
KHJO - Hanford Municipal Airport (14 nm SE)
KNLC - Lemoore Naval Air Station (Reeves Field) (14 nm SW)
KFAT - Fresno Yosemite International Airport (16 nm N)
O32 - Reedley Municipal Airport (18 nm NE)
 
Loc | Ops | Rwys | IFR | FBO | Links
Com | Nav | Svcs | Stats | Notes
Area around 65CL (Al Divine Airport)
 
Road maps at: MapQuest Bing Google
 
Aerial photo
No photo
 
Sectional chart

 
Airport distance calculator
Flying to Al Divine Airport? Find the distance to fly.

From to 65CL

Sunrise and sunset
Times for 30-Nov-2021
 Local
(UTC-8)
 Zulu
(UTC)
Morning civil twilight06:2414:24
Sunrise06:5314:53
Sunset16:4300:43
Evening civil twilight17:1101:11

Current date and time
Zulu (UTC)  30-Nov-2021 18:18:10
Local (UTC-8)  30-Nov-2021 10:18:10
 
METAR
KHJO 
14nm SE 
301753Z AUTO 00000KT 3SM HZ CLR 12/06 A3020 RMK AO2 SLP230 T01220061 10122 20011 51016
KNLC 
15nm SW 
301756Z 14003KT 5SM HZ CLR 14/06 A3019 RMK AO2 SLP225 RH/57 T01390061 10139 20017 50012
KFAT 
16nm N 
301753Z 29003KT 6SM HZ CLR 15/07 A3019 RMK AO2 SLP221 T01500072 10150 20067 50008
KVIS 
21nm SE 
301756Z AUTO 17003KT 5SM HZ CLR 14/07 A3020 RMK AO2 SLP237 T01390072 10139 20033 51013
TAF
KNLC 
15nm SW 
3015/0115 VRB06KT 9000 HZ FEW005 QNH3006INS TEMPO 3015/3018 4000 BR BKN003 FM301900 VRB06KT 9999 SKC QNH3008INS T21/3023Z T04/0112Z COR 1516 FS30165
KFAT 
16nm N 
301720Z 3018/0118 VRB03KT 5SM HZ SKC FM011200 00000KT 4SM BR SKC
NOTAMs
Click for the latest NOTAMs
NOTAMs are issued by the DoD/FAA and will open in a separate window not controlled by AirNav.

 

 
 

Would you like to see your business listed on this page?

 If your business provides an interesting product or service to pilots, flight crews, aircraft, or users of the Al Divine Airport, you should consider listing it here.  To start the listing process, click on the button below
 
Add a business
 

Other Pages about Al Divine Airport

Update a link
 
Copyright © AirNav, LLC. All rights reserved. Privacy Policy  Contact